sensor_id;sensor_type;location;lat;lon;timestamp;P1;durP1;ratioP1;P2;durP2;ratioP2
14858;SDS011;7521;51.700;6.874;2023-09-08T00:00:34;7.60;;;5.05;;
14858;SDS011;7521;51.700;6.874;2023-09-08T00:03:39;6.70;;;5.57;;
14858;SDS011;7521;51.700;6.874;2023-09-08T00:06:45;6.70;;;5.27;;
14858;SDS011;7521;51.700;6.874;2023-09-08T00:09:51;7.73;;;5.10;;
14858;SDS011;7521;51.700;6.874;2023-09-08T00:12:56;5.90;;;5.00;;
14858;SDS011;7521;51.700;6.874;2023-09-08T00:16:01;7.73;;;4.70;;
14858;SDS011;7521;51.700;6.874;2023-09-08T00:19:06;8.05;;;5.28;;
14858;SDS011;7521;51.700;6.874;2023-09-08T00:22:11;8.05;;;5.60;;
14858;SDS011;7521;51.700;6.874;2023-09-08T00:25:17;5.80;;;4.87;;
14858;SDS011;7521;51.700;6.874;2023-09-08T00:28:22;7.73;;;5.30;;
14858;SDS011;7521;51.700;6.874;2023-09-08T00:31:27;7.93;;;5.75;;
14858;SDS011;7521;51.700;6.874;2023-09-08T00:34:32;8.87;;;5.43;;
14858;SDS011;7521;51.700;6.874;2023-09-08T00:37:39;6.37;;;5.10;;
14858;SDS011;7521;51.700;6.874;2023-09-08T00:40:44;5.90;;;5.10;;
14858;SDS011;7521;51.700;6.874;2023-09-08T00:43:49;7.00;;;5.60;;
14858;SDS011;7521;51.700;6.874;2023-09-08T00:46:55;6.73;;;5.63;;
14858;SDS011;7521;51.700;6.874;2023-09-08T00:50:01;7.83;;;4.93;;
14858;SDS011;7521;51.700;6.874;2023-09-08T00:53:07;6.20;;;5.60;;
14858;SDS011;7521;51.700;6.874;2023-09-08T00:56:12;8.23;;;5.33;;
14858;SDS011;7521;51.700;6.874;2023-09-08T00:59:18;5.83;;;5.20;;
14858;SDS011;7521;51.700;6.874;2023-09-08T01:02:23;8.67;;;6.17;;
14858;SDS011;7521;51.700;6.874;2023-09-08T01:05:28;8.07;;;5.30;;
14858;SDS011;7521;51.700;6.874;2023-09-08T01:08:34;5.78;;;5.22;;
14858;SDS011;7521;51.700;6.874;2023-09-08T01:11:39;7.50;;;5.57;;
14858;SDS011;7521;51.700;6.874;2023-09-08T01:14:44;7.33;;;5.70;;
14858;SDS011;7521;51.700;6.874;2023-09-08T01:17:49;6.93;;;6.07;;
14858;SDS011;7521;51.700;6.874;2023-09-08T01:27:27;8.93;;;6.53;;
14858;SDS011;7521;51.700;6.874;2023-09-08T01:30:33;8.50;;;6.40;;
14858;SDS011;7521;51.700;6.874;2023-09-08T01:33:39;8.23;;;6.70;;
14858;SDS011;7521;51.700;6.874;2023-09-08T01:36:45;8.23;;;7.13;;
14858;SDS011;7521;51.700;6.874;2023-09-08T01:39:50;10.53;;;7.20;;
14858;SDS011;7521;51.700;6.874;2023-09-08T01:42:55;8.63;;;6.38;;
14858;SDS011;7521;51.700;6.874;2023-09-08T01:46:00;7.75;;;6.35;;
14858;SDS011;7521;51.700;6.874;2023-09-08T01:49:05;8.52;;;6.45;;
14858;SDS011;7521;51.700;6.874;2023-09-08T01:52:11;8.02;;;6.40;;
14858;SDS011;7521;51.700;6.874;2023-09-08T01:55:16;8.48;;;7.25;;
14858;SDS011;7521;51.700;6.874;2023-09-08T01:58:21;8.63;;;6.93;;
14858;SDS011;7521;51.700;6.874;2023-09-08T02:01:26;10.50;;;7.80;;
14858;SDS011;7521;51.700;6.874;2023-09-08T02:04:32;9.10;;;8.03;;
14858;SDS011;7521;51.700;6.874;2023-09-08T02:07:37;11.50;;;7.83;;
14858;SDS011;7521;51.700;6.874;2023-09-08T02:10:42;8.23;;;7.00;;
14858;SDS011;7521;51.700;6.874;2023-09-08T02:13:48;10.48;;;7.60;;
14858;SDS011;7521;51.700;6.874;2023-09-08T02:16:53;8.20;;;6.83;;
14858;SDS011;7521;51.700;6.874;2023-09-08T02:19:59;8.07;;;7.27;;
14858;SDS011;7521;51.700;6.874;2023-09-08T02:23:04;7.40;;;6.70;;
14858;SDS011;7521;51.700;6.874;2023-09-08T02:26:10;8.40;;;7.60;;
14858;SDS011;7521;51.700;6.874;2023-09-08T02:29:15;9.20;;;7.50;;
14858;SDS011;7521;51.700;6.874;2023-09-08T02:32:21;9.60;;;8.50;;
14858;SDS011;7521;51.700;6.874;2023-09-08T02:35:26;8.23;;;7.43;;
14858;SDS011;7521;51.700;6.874;2023-09-08T02:38:31;8.15;;;7.30;;
14858;SDS011;7521;51.700;6.874;2023-09-08T02:41:37;9.67;;;8.13;;
14858;SDS011;7521;51.700;6.874;2023-09-08T02:44:42;11.60;;;8.05;;
14858;SDS011;7521;51.700;6.874;2023-09-08T02:47:48;8.37;;;7.37;;
14858;SDS011;7521;51.700;6.874;2023-09-08T02:50:53;9.33;;;8.00;;
14858;SDS011;7521;51.700;6.874;2023-09-08T02:53:58;13.30;;;8.33;;
14858;SDS011;7521;51.700;6.874;2023-09-08T02:57:04;10.15;;;8.20;;
14858;SDS011;7521;51.700;6.874;2023-09-08T03:00:09;11.53;;;8.47;;
14858;SDS011;7521;51.700;6.874;2023-09-08T03:03:14;9.03;;;8.13;;
14858;SDS011;7521;51.700;6.874;2023-09-08T03:06:19;16.63;;;9.15;;
14858;SDS011;7521;51.700;6.874;2023-09-08T03:09:25;10.37;;;8.07;;
14858;SDS011;7521;51.700;6.874;2023-09-08T03:12:30;9.25;;;8.35;;
14858;SDS011;7521;51.700;6.874;2023-09-08T03:15:35;13.73;;;9.25;;
14858;SDS011;7521;51.700;6.874;2023-09-08T03:18:41;8.98;;;8.18;;
14858;SDS011;7521;51.700;6.874;2023-09-08T03:21:46;9.83;;;8.40;;
14858;SDS011;7521;51.700;6.874;2023-09-08T03:24:51;9.17;;;8.27;;
14858;SDS011;7521;51.700;6.874;2023-09-08T03:27:57;13.37;;;8.97;;
14858;SDS011;7521;51.700;6.874;2023-09-08T03:31:02;9.75;;;8.75;;
14858;SDS011;7521;51.700;6.874;2023-09-08T03:34:07;9.17;;;8.27;;
14858;SDS011;7521;51.700;6.874;2023-09-08T03:37:13;14.63;;;9.67;;
14858;SDS011;7521;51.700;6.874;2023-09-08T03:40:18;10.87;;;9.10;;
14858;SDS011;7521;51.700;6.874;2023-09-08T03:43:23;10.80;;;9.27;;
14858;SDS011;7521;51.700;6.874;2023-09-08T03:46:28;9.88;;;8.68;;
14858;SDS011;7521;51.700;6.874;2023-09-08T03:49:33;9.43;;;8.20;;
14858;SDS011;7521;51.700;6.874;2023-09-08T03:52:38;10.82;;;9.35;;
14858;SDS011;7521;51.700;6.874;2023-09-08T03:55:44;10.33;;;8.87;;
14858;SDS011;7521;51.700;6.874;2023-09-08T03:58:49;10.00;;;9.00;;
14858;SDS011;7521;51.700;6.874;2023-09-08T04:01:54;10.27;;;9.23;;
14858;SDS011;7521;51.700;6.874;2023-09-08T04:04:59;12.27;;;8.53;;
14858;SDS011;7521;51.700;6.874;2023-09-08T04:08:05;11.20;;;8.77;;
14858;SDS011;7521;51.700;6.874;2023-09-08T04:11:10;12.13;;;9.47;;
14858;SDS011;7521;51.700;6.874;2023-09-08T04:14:15;11.15;;;8.85;;
14858;SDS011;7521;51.700;6.874;2023-09-08T04:17:20;15.02;;;9.68;;
14858;SDS011;7521;51.700;6.874;2023-09-08T04:20:25;12.17;;;10.10;;
14858;SDS011;7521;51.700;6.874;2023-09-08T04:23:31;10.15;;;9.00;;
14858;SDS011;7521;51.700;6.874;2023-09-08T04:26:36;10.75;;;8.80;;
14858;SDS011;7521;51.700;6.874;2023-09-08T04:29:41;14.63;;;9.20;;
14858;SDS011;7521;51.700;6.874;2023-09-08T04:32:46;10.33;;;8.77;;
14858;SDS011;7521;51.700;6.874;2023-09-08T04:35:51;9.77;;;7.35;;
14858;SDS011;7521;51.700;6.874;2023-09-08T04:38:57;8.68;;;6.97;;
14858;SDS011;7521;51.700;6.874;2023-09-08T04:42:02;8.95;;;8.05;;
14858;SDS011;7521;51.700;6.874;2023-09-08T04:45:08;10.00;;;8.07;;
14858;SDS011;7521;51.700;6.874;2023-09-08T04:48:13;11.40;;;9.77;;
14858;SDS011;7521;51.700;6.874;2023-09-08T04:51:18;10.60;;;8.30;;
14858;SDS011;7521;51.700;6.874;2023-09-08T04:54:23;10.13;;;9.13;;
14858;SDS011;7521;51.700;6.874;2023-09-08T04:57:31;12.27;;;9.10;;
14858;SDS011;7521;51.700;6.874;2023-09-08T05:00:40;9.60;;;8.60;;
14858;SDS011;7521;51.700;6.874;2023-09-08T05:03:45;10.53;;;8.20;;
14858;SDS011;7521;51.700;6.874;2023-09-08T05:06:50;11.93;;;8.48;;
14858;SDS011;7521;51.700;6.874;2023-09-08T05:09:55;10.23;;;8.00;;
14858;SDS011;7521;51.700;6.874;2023-09-08T05:13:00;11.00;;;9.03;;
14858;SDS011;7521;51.700;6.874;2023-09-08T05:16:06;10.27;;;8.27;;
14858;SDS011;7521;51.700;6.874;2023-09-08T05:19:17;13.17;;;9.70;;
14858;SDS011;7521;51.700;6.874;2023-09-08T05:22:22;13.07;;;9.68;;
14858;SDS011;7521;51.700;6.874;2023-09-08T05:25:27;13.15;;;8.50;;
14858;SDS011;7521;51.700;6.874;2023-09-08T05:28:33;9.50;;;8.48;;
14858;SDS011;7521;51.700;6.874;2023-09-08T05:31:38;9.10;;;8.17;;
14858;SDS011;7521;51.700;6.874;2023-09-08T05:34:43;9.10;;;8.20;;
14858;SDS011;7521;51.700;6.874;2023-09-08T05:37:48;10.40;;;7.97;;
14858;SDS011;7521;51.700;6.874;2023-09-08T05:40:54;9.85;;;8.23;;
14858;SDS011;7521;51.700;6.874;2023-09-08T05:43:59;10.80;;;8.18;;
14858;SDS011;7521;51.700;6.874;2023-09-08T05:47:04;10.57;;;8.33;;
14858;SDS011;7521;51.700;6.874;2023-09-08T05:50:10;12.53;;;9.43;;
14858;SDS011;7521;51.700;6.874;2023-09-08T05:53:15;9.30;;;7.87;;
14858;SDS011;7521;51.700;6.874;2023-09-08T05:56:24;9.13;;;8.18;;
14858;SDS011;7521;51.700;6.874;2023-09-08T05:59:29;13.50;;;8.60;;
14858;SDS011;7521;51.700;6.874;2023-09-08T06:02:34;9.93;;;8.93;;
14858;SDS011;7521;51.700;6.874;2023-09-08T06:05:39;10.70;;;9.00;;
14858;SDS011;7521;51.700;6.874;2023-09-08T06:08:44;13.32;;;9.70;;
14858;SDS011;7521;51.700;6.874;2023-09-08T06:11:49;11.52;;;9.02;;
14858;SDS011;7521;51.700;6.874;2023-09-08T06:14:55;12.38;;;8.30;;
14858;SDS011;7521;51.700;6.874;2023-09-08T06:18:00;11.43;;;8.38;;
14858;SDS011;7521;51.700;6.874;2023-09-08T06:21:08;10.93;;;7.78;;
14858;SDS011;7521;51.700;6.874;2023-09-08T06:24:13;9.37;;;7.93;;
14858;SDS011;7521;51.700;6.874;2023-09-08T06:27:18;10.45;;;7.97;;
14858;SDS011;7521;51.700;6.874;2023-09-08T06:30:24;9.23;;;7.87;;
14858;SDS011;7521;51.700;6.874;2023-09-08T06:33:29;8.48;;;7.57;;
14858;SDS011;7521;51.700;6.874;2023-09-08T06:36:34;10.50;;;7.70;;
14858;SDS011;7521;51.700;6.874;2023-09-08T06:39:39;10.73;;;7.27;;
14858;SDS011;7521;51.700;6.874;2023-09-08T06:42:45;9.67;;;7.00;;
14858;SDS011;7521;51.700;6.874;2023-09-08T06:45:50;9.93;;;6.88;;
14858;SDS011;7521;51.700;6.874;2023-09-08T06:48:55;12.82;;;7.45;;
14858;SDS011;7521;51.700;6.874;2023-09-08T06:52:01;9.93;;;6.77;;
14858;SDS011;7521;51.700;6.874;2023-09-08T06:55:06;8.43;;;6.72;;
14858;SDS011;7521;51.700;6.874;2023-09-08T06:58:11;8.37;;;7.57;;
14858;SDS011;7521;51.700;6.874;2023-09-08T07:01:19;12.43;;;7.20;;
14858;SDS011;7521;51.700;6.874;2023-09-08T07:04:24;7.40;;;6.78;;
14858;SDS011;7521;51.700;6.874;2023-09-08T07:07:30;8.77;;;7.00;;
14858;SDS011;7521;51.700;6.874;2023-09-08T07:10:36;6.90;;;6.10;;
14858;SDS011;7521;51.700;6.874;2023-09-08T07:13:41;8.75;;;6.60;;
14858;SDS011;7521;51.700;6.874;2023-09-08T07:16:46;7.53;;;6.70;;
14858;SDS011;7521;51.700;6.874;2023-09-08T07:19:51;8.80;;;6.70;;
14858;SDS011;7521;51.700;6.874;2023-09-08T07:22:57;9.73;;;6.60;;
14858;SDS011;7521;51.700;6.874;2023-09-08T07:26:02;8.23;;;6.63;;
14858;SDS011;7521;51.700;6.874;2023-09-08T07:29:07;10.63;;;6.90;;
14858;SDS011;7521;51.700;6.874;2023-09-08T07:32:12;8.50;;;6.57;;
14858;SDS011;7521;51.700;6.874;2023-09-08T07:35:20;7.00;;;5.80;;
14858;SDS011;7521;51.700;6.874;2023-09-08T07:38:25;8.30;;;6.87;;
14858;SDS011;7521;51.700;6.874;2023-09-08T07:41:31;10.65;;;6.72;;
14858;SDS011;7521;51.700;6.874;2023-09-08T07:44:36;16.73;;;8.33;;
14858;SDS011;7521;51.700;6.874;2023-09-08T07:47:41;13.63;;;7.47;;
14858;SDS011;7521;51.700;6.874;2023-09-08T07:50:48;6.90;;;6.20;;
14858;SDS011;7521;51.700;6.874;2023-09-08T07:53:53;10.05;;;7.47;;
14858;SDS011;7521;51.700;6.874;2023-09-08T07:56:59;7.90;;;5.97;;
14858;SDS011;7521;51.700;6.874;2023-09-08T08:00:04;8.97;;;6.90;;
14858;SDS011;7521;51.700;6.874;2023-09-08T08:03:09;6.83;;;5.80;;
14858;SDS011;7521;51.700;6.874;2023-09-08T08:06:15;8.50;;;5.60;;
14858;SDS011;7521;51.700;6.874;2023-09-08T08:09:20;7.65;;;5.35;;
14858;SDS011;7521;51.700;6.874;2023-09-08T08:12:25;9.13;;;5.50;;
14858;SDS011;7521;51.700;6.874;2023-09-08T08:15:37;5.90;;;5.10;;
14858;SDS011;7521;51.700;6.874;2023-09-08T08:18:42;9.60;;;5.30;;
14858;SDS011;7521;51.700;6.874;2023-09-08T08:21:48;6.45;;;4.95;;
14858;SDS011;7521;51.700;6.874;2023-09-08T08:24:53;9.37;;;5.57;;
14858;SDS011;7521;51.700;6.874;2023-09-08T08:27:58;6.87;;;5.03;;
14858;SDS011;7521;51.700;6.874;2023-09-08T08:31:05;9.83;;;5.30;;
14858;SDS011;7521;51.700;6.874;2023-09-08T08:34:10;6.40;;;5.40;;
14858;SDS011;7521;51.700;6.874;2023-09-08T08:37:16;7.45;;;5.03;;
14858;SDS011;7521;51.700;6.874;2023-09-08T08:40:21;7.27;;;4.40;;
14858;SDS011;7521;51.700;6.874;2023-09-08T08:43:32;8.63;;;4.93;;
14858;SDS011;7521;51.700;6.874;2023-09-08T08:46:37;9.80;;;4.93;;
14858;SDS011;7521;51.700;6.874;2023-09-08T08:49:44;9.37;;;4.70;;
14858;SDS011;7521;51.700;6.874;2023-09-08T08:52:51;17.07;;;5.90;;
14858;SDS011;7521;51.700;6.874;2023-09-08T08:55:57;9.23;;;4.80;;
14858;SDS011;7521;51.700;6.874;2023-09-08T08:59:04;6.77;;;4.37;;
14858;SDS011;7521;51.700;6.874;2023-09-08T09:02:10;7.73;;;4.60;;
14858;SDS011;7521;51.700;6.874;2023-09-08T09:05:16;7.07;;;4.70;;
14858;SDS011;7521;51.700;6.874;2023-09-08T09:08:21;9.13;;;5.23;;
14858;SDS011;7521;51.700;6.874;2023-09-08T09:11:28;11.50;;;5.30;;
14858;SDS011;7521;51.700;6.874;2023-09-08T09:14:33;10.03;;;5.40;;
14858;SDS011;7521;51.700;6.874;2023-09-08T09:17:39;5.00;;;4.40;;
14858;SDS011;7521;51.700;6.874;2023-09-08T09:20:54;7.83;;;4.97;;
14858;SDS011;7521;51.700;6.874;2023-09-08T09:24:00;7.40;;;4.77;;
14858;SDS011;7521;51.700;6.874;2023-09-08T09:27:09;7.50;;;4.73;;
14858;SDS011;7521;51.700;6.874;2023-09-08T09:30:14;7.17;;;4.60;;
14858;SDS011;7521;51.700;6.874;2023-09-08T09:33:19;8.25;;;4.32;;
14858;SDS011;7521;51.700;6.874;2023-09-08T09:36:25;9.20;;;5.03;;
14858;SDS011;7521;51.700;6.874;2023-09-08T09:39:30;6.50;;;4.73;;
14858;SDS011;7521;51.700;6.874;2023-09-08T09:42:38;12.02;;;5.43;;
14858;SDS011;7521;51.700;6.874;2023-09-08T09:45:45;8.50;;;4.40;;
14858;SDS011;7521;51.700;6.874;2023-09-08T09:48:51;5.50;;;4.67;;
14858;SDS011;7521;51.700;6.874;2023-09-08T09:51:57;5.73;;;4.27;;
14858;SDS011;7521;51.700;6.874;2023-09-08T09:55:03;6.33;;;4.60;;
14858;SDS011;7521;51.700;6.874;2023-09-08T09:58:08;5.23;;;4.63;;
14858;SDS011;7521;51.700;6.874;2023-09-08T10:01:15;9.03;;;5.13;;
14858;SDS011;7521;51.700;6.874;2023-09-08T10:04:21;10.67;;;4.43;;
14858;SDS011;7521;51.700;6.874;2023-09-08T10:07:26;5.97;;;4.53;;
14858;SDS011;7521;51.700;6.874;2023-09-08T10:10:32;7.10;;;4.63;;
14858;SDS011;7521;51.700;6.874;2023-09-08T10:13:39;5.37;;;4.20;;
14858;SDS011;7521;51.700;6.874;2023-09-08T10:16:47;5.33;;;4.40;;
14858;SDS011;7521;51.700;6.874;2023-09-08T10:19:57;4.97;;;4.07;;
14858;SDS011;7521;51.700;6.874;2023-09-08T10:23:06;6.00;;;4.47;;
14858;SDS011;7521;51.700;6.874;2023-09-08T10:26:14;6.33;;;4.47;;
14858;SDS011;7521;51.700;6.874;2023-09-08T10:29:21;7.13;;;4.80;;
14858;SDS011;7521;51.700;6.874;2023-09-08T10:32:27;7.40;;;4.47;;
14858;SDS011;7521;51.700;6.874;2023-09-08T10:35:33;8.77;;;4.53;;
14858;SDS011;7521;51.700;6.874;2023-09-08T10:38:38;6.30;;;4.30;;
14858;SDS011;7521;51.700;6.874;2023-09-08T10:41:43;6.10;;;4.50;;
14858;SDS011;7521;51.700;6.874;2023-09-08T10:47:55;5.53;;;4.93;;
14858;SDS011;7521;51.700;6.874;2023-09-08T10:51:02;7.43;;;4.77;;
14858;SDS011;7521;51.700;6.874;2023-09-08T10:54:09;8.70;;;4.60;;
14858;SDS011;7521;51.700;6.874;2023-09-08T10:57:16;11.50;;;5.00;;
14858;SDS011;7521;51.700;6.874;2023-09-08T11:00:22;8.80;;;3.97;;
14858;SDS011;7521;51.700;6.874;2023-09-08T11:06:42;7.27;;;4.33;;
14858;SDS011;7521;51.700;6.874;2023-09-08T11:09:47;5.60;;;4.10;;
14858;SDS011;7521;51.700;6.874;2023-09-08T11:12:54;9.20;;;4.53;;
14858;SDS011;7521;51.700;6.874;2023-09-08T11:15:59;6.13;;;4.00;;
14858;SDS011;7521;51.700;6.874;2023-09-08T11:19:04;5.33;;;4.43;;
14858;SDS011;7521;51.700;6.874;2023-09-08T11:22:09;7.20;;;4.17;;
14858;SDS011;7521;51.700;6.874;2023-09-08T11:25:15;9.63;;;4.93;;
14858;SDS011;7521;51.700;6.874;2023-09-08T11:28:21;4.53;;;3.53;;
14858;SDS011;7521;51.700;6.874;2023-09-08T11:31:27;6.87;;;3.77;;
14858;SDS011;7521;51.700;6.874;2023-09-08T11:34:32;8.47;;;4.20;;
14858;SDS011;7521;51.700;6.874;2023-09-08T11:37:37;4.37;;;3.97;;
14858;SDS011;7521;51.700;6.874;2023-09-08T11:40:43;8.67;;;3.93;;
14858;SDS011;7521;51.700;6.874;2023-09-08T11:43:49;4.80;;;4.23;;
14858;SDS011;7521;51.700;6.874;2023-09-08T11:46:54;4.57;;;3.53;;
14858;SDS011;7521;51.700;6.874;2023-09-08T11:49:59;6.27;;;3.87;;
14858;SDS011;7521;51.700;6.874;2023-09-08T11:53:05;5.90;;;3.87;;
14858;SDS011;7521;51.700;6.874;2023-09-08T11:56:11;6.47;;;3.87;;
14858;SDS011;7521;51.700;6.874;2023-09-08T11:59:16;6.93;;;3.85;;
14858;SDS011;7521;51.700;6.874;2023-09-08T12:02:21;5.17;;;4.07;;
14858;SDS011;7521;51.700;6.874;2023-09-08T12:05:27;4.10;;;3.70;;
14858;SDS011;7521;51.700;6.874;2023-09-08T12:08:32;4.07;;;3.53;;
14858;SDS011;7521;51.700;6.874;2023-09-08T12:11:38;7.27;;;4.07;;
14858;SDS011;7521;51.700;6.874;2023-09-08T12:14:47;5.20;;;4.00;;
14858;SDS011;7521;51.700;6.874;2023-09-08T12:17:52;7.10;;;4.13;;
14858;SDS011;7521;51.700;6.874;2023-09-08T12:21:04;8.20;;;4.10;;
14858;SDS011;7521;51.700;6.874;2023-09-08T12:24:12;6.07;;;4.20;;
14858;SDS011;7521;51.700;6.874;2023-09-08T12:27:19;4.57;;;4.10;;
14858;SDS011;7521;51.700;6.874;2023-09-08T12:30:24;6.00;;;3.83;;
14858;SDS011;7521;51.700;6.874;2023-09-08T12:33:34;7.83;;;3.80;;
14858;SDS011;7521;51.700;6.874;2023-09-08T12:36:43;5.50;;;4.20;;
14858;SDS011;7521;51.700;6.874;2023-09-08T12:39:48;4.47;;;3.60;;
14858;SDS011;7521;51.700;6.874;2023-09-08T12:42:54;5.07;;;3.97;;
14858;SDS011;7521;51.700;6.874;2023-09-08T12:46:00;8.40;;;3.97;;
14858;SDS011;7521;51.700;6.874;2023-09-08T12:49:05;7.23;;;4.03;;
14858;SDS011;7521;51.700;6.874;2023-09-08T12:52:10;5.40;;;4.53;;
14858;SDS011;7521;51.700;6.874;2023-09-08T12:55:16;5.40;;;4.60;;
14858;SDS011;7521;51.700;6.874;2023-09-08T12:58:21;7.07;;;4.47;;
14858;SDS011;7521;51.700;6.874;2023-09-08T13:01:26;6.47;;;4.37;;
14858;SDS011;7521;51.700;6.874;2023-09-08T13:04:31;6.30;;;4.43;;
14858;SDS011;7521;51.700;6.874;2023-09-08T13:07:36;6.53;;;4.07;;
14858;SDS011;7521;51.700;6.874;2023-09-08T13:10:42;5.80;;;4.23;;
14858;SDS011;7521;51.700;6.874;2023-09-08T13:13:47;4.73;;;4.20;;
14858;SDS011;7521;51.700;6.874;2023-09-08T13:16:52;4.93;;;4.37;;
14858;SDS011;7521;51.700;6.874;2023-09-08T13:19:57;5.50;;;4.27;;
14858;SDS011;7521;51.700;6.874;2023-09-08T13:23:02;4.17;;;3.77;;
14858;SDS011;7521;51.700;6.874;2023-09-08T13:26:08;7.77;;;4.40;;
14858;SDS011;7521;51.700;6.874;2023-09-08T13:29:13;5.97;;;4.20;;
14858;SDS011;7521;51.700;6.874;2023-09-08T13:32:18;8.83;;;4.43;;
14858;SDS011;7521;51.700;6.874;2023-09-08T13:35:23;6.87;;;4.20;;
14858;SDS011;7521;51.700;6.874;2023-09-08T13:38:28;4.80;;;3.80;;
14858;SDS011;7521;51.700;6.874;2023-09-08T13:41:52;6.33;;;4.03;;
14858;SDS011;7521;51.700;6.874;2023-09-08T13:44:58;5.87;;;4.70;;
14858;SDS011;7521;51.700;6.874;2023-09-08T13:48:03;7.70;;;4.97;;
14858;SDS011;7521;51.700;6.874;2023-09-08T13:51:11;4.20;;;3.80;;
14858;SDS011;7521;51.700;6.874;2023-09-08T13:54:16;6.60;;;3.90;;
14858;SDS011;7521;51.700;6.874;2023-09-08T13:57:21;3.90;;;3.60;;
14858;SDS011;7521;51.700;6.874;2023-09-08T14:00:28;6.47;;;4.23;;
14858;SDS011;7521;51.700;6.874;2023-09-08T14:03:33;6.97;;;4.43;;
14858;SDS011;7521;51.700;6.874;2023-09-08T14:06:38;4.83;;;4.10;;
14858;SDS011;7521;51.700;6.874;2023-09-08T14:09:43;5.53;;;4.00;;
14858;SDS011;7521;51.700;6.874;2023-09-08T14:12:49;5.77;;;4.17;;
14858;SDS011;7521;51.700;6.874;2023-09-08T14:15:54;4.97;;;3.93;;
14858;SDS011;7521;51.700;6.874;2023-09-08T14:18:59;7.07;;;4.13;;
14858;SDS011;7521;51.700;6.874;2023-09-08T14:22:04;4.53;;;3.70;;
14858;SDS011;7521;51.700;6.874;2023-09-08T14:25:10;5.63;;;4.30;;
14858;SDS011;7521;51.700;6.874;2023-09-08T14:28:15;4.47;;;4.00;;
14858;SDS011;7521;51.700;6.874;2023-09-08T14:31:20;5.73;;;4.23;;
14858;SDS011;7521;51.700;6.874;2023-09-08T14:34:25;6.30;;;3.93;;
14858;SDS011;7521;51.700;6.874;2023-09-08T14:37:30;5.00;;;4.30;;
14858;SDS011;7521;51.700;6.874;2023-09-08T14:40:36;4.60;;;4.20;;
14858;SDS011;7521;51.700;6.874;2023-09-08T14:43:41;4.57;;;4.07;;
14858;SDS011;7521;51.700;6.874;2023-09-08T14:46:46;4.73;;;4.07;;
14858;SDS011;7521;51.700;6.874;2023-09-08T14:49:51;6.07;;;4.20;;
14858;SDS011;7521;51.700;6.874;2023-09-08T14:52:56;4.33;;;3.93;;
14858;SDS011;7521;51.700;6.874;2023-09-08T14:56:02;6.23;;;4.10;;
14858;SDS011;7521;51.700;6.874;2023-09-08T14:59:09;7.40;;;4.20;;
14858;SDS011;7521;51.700;6.874;2023-09-08T15:02:14;5.67;;;3.87;;
14858;SDS011;7521;51.700;6.874;2023-09-08T15:05:19;5.50;;;4.23;;
14858;SDS011;7521;51.700;6.874;2023-09-08T15:08:25;4.70;;;4.00;;
14858;SDS011;7521;51.700;6.874;2023-09-08T15:11:30;3.83;;;3.43;;
14858;SDS011;7521;51.700;6.874;2023-09-08T15:14:35;6.93;;;4.33;;
14858;SDS011;7521;51.700;6.874;2023-09-08T15:17:40;5.17;;;4.67;;
14858;SDS011;7521;51.700;6.874;2023-09-08T15:20:51;4.73;;;4.23;;
14858;SDS011;7521;51.700;6.874;2023-09-08T15:23:57;7.13;;;4.27;;
14858;SDS011;7521;51.700;6.874;2023-09-08T15:27:02;7.17;;;4.07;;
14858;SDS011;7521;51.700;6.874;2023-09-08T15:30:08;6.93;;;4.90;;
14858;SDS011;7521;51.700;6.874;2023-09-08T15:33:14;5.80;;;4.33;;
14858;SDS011;7521;51.700;6.874;2023-09-08T15:36:19;14.37;;;5.03;;
14858;SDS011;7521;51.700;6.874;2023-09-08T15:39:25;6.50;;;4.47;;
14858;SDS011;7521;51.700;6.874;2023-09-08T15:42:30;6.07;;;4.77;;
14858;SDS011;7521;51.700;6.874;2023-09-08T15:45:35;5.77;;;4.20;;
14858;SDS011;7521;51.700;6.874;2023-09-08T15:48:40;8.53;;;4.97;;
14858;SDS011;7521;51.700;6.874;2023-09-08T15:51:46;9.83;;;5.57;;
14858;SDS011;7521;51.700;6.874;2023-09-08T15:54:51;5.23;;;4.70;;
14858;SDS011;7521;51.700;6.874;2023-09-08T15:57:56;7.73;;;5.00;;
14858;SDS011;7521;51.700;6.874;2023-09-08T16:01:02;9.07;;;4.83;;
14858;SDS011;7521;51.700;6.874;2023-09-08T16:04:07;6.53;;;4.90;;
14858;SDS011;7521;51.700;6.874;2023-09-08T16:07:14;9.33;;;5.50;;
14858;SDS011;7521;51.700;6.874;2023-09-08T16:10:20;8.77;;;5.63;;
14858;SDS011;7521;51.700;6.874;2023-09-08T16:13:26;5.97;;;5.20;;
14858;SDS011;7521;51.700;6.874;2023-09-08T16:16:31;8.73;;;5.00;;
14858;SDS011;7521;51.700;6.874;2023-09-08T16:19:36;8.67;;;5.77;;
14858;SDS011;7521;51.700;6.874;2023-09-08T16:22:42;6.33;;;5.13;;
14858;SDS011;7521;51.700;6.874;2023-09-08T16:25:47;8.43;;;5.53;;
14858;SDS011;7521;51.700;6.874;2023-09-08T16:28:52;11.37;;;4.90;;
14858;SDS011;7521;51.700;6.874;2023-09-08T16:31:57;12.77;;;5.63;;
14858;SDS011;7521;51.700;6.874;2023-09-08T16:35:02;7.53;;;5.73;;
14858;SDS011;7521;51.700;6.874;2023-09-08T16:38:08;8.20;;;5.60;;
14858;SDS011;7521;51.700;6.874;2023-09-08T16:41:14;8.33;;;5.83;;
14858;SDS011;7521;51.700;6.874;2023-09-08T16:44:19;9.00;;;6.40;;
14858;SDS011;7521;51.700;6.874;2023-09-08T16:47:25;7.67;;;5.27;;
14858;SDS011;7521;51.700;6.874;2023-09-08T16:50:30;10.97;;;5.37;;
14858;SDS011;7521;51.700;6.874;2023-09-08T16:53:35;7.47;;;5.57;;
14858;SDS011;7521;51.700;6.874;2023-09-08T16:56:40;8.47;;;6.03;;
14858;SDS011;7521;51.700;6.874;2023-09-08T16:59:45;6.37;;;5.10;;
14858;SDS011;7521;51.700;6.874;2023-09-08T17:02:51;9.07;;;5.23;;
14858;SDS011;7521;51.700;6.874;2023-09-08T17:05:56;6.53;;;4.90;;
14858;SDS011;7521;51.700;6.874;2023-09-08T17:09:03;6.50;;;5.13;;
14858;SDS011;7521;51.700;6.874;2023-09-08T17:12:08;8.20;;;5.10;;
14858;SDS011;7521;51.700;6.874;2023-09-08T17:15:14;5.57;;;5.07;;
14858;SDS011;7521;51.700;6.874;2023-09-08T17:18:20;6.10;;;5.20;;
14858;SDS011;7521;51.700;6.874;2023-09-08T17:21:25;6.50;;;5.37;;
14858;SDS011;7521;51.700;6.874;2023-09-08T17:24:30;8.27;;;5.60;;
14858;SDS011;7521;51.700;6.874;2023-09-08T17:27:35;6.77;;;5.67;;
14858;SDS011;7521;51.700;6.874;2023-09-08T17:30:41;6.03;;;5.13;;
14858;SDS011;7521;51.700;6.874;2023-09-08T17:33:46;8.13;;;5.37;;
14858;SDS011;7521;51.700;6.874;2023-09-08T17:36:52;6.30;;;5.30;;
14858;SDS011;7521;51.700;6.874;2023-09-08T17:39:57;7.17;;;5.77;;
14858;SDS011;7521;51.700;6.874;2023-09-08T17:43:02;8.37;;;6.20;;
14858;SDS011;7521;51.700;6.874;2023-09-08T17:46:08;9.33;;;6.50;;
14858;SDS011;7521;51.700;6.874;2023-09-08T17:49:14;7.77;;;6.10;;
14858;SDS011;7521;51.700;6.874;2023-09-08T17:52:19;8.23;;;6.40;;
14858;SDS011;7521;51.700;6.874;2023-09-08T17:55:24;7.40;;;6.70;;
14858;SDS011;7521;51.700;6.874;2023-09-08T17:58:29;12.77;;;6.97;;
14858;SDS011;7521;51.700;6.874;2023-09-08T18:01:34;9.77;;;6.77;;
14858;SDS011;7521;51.700;6.874;2023-09-08T18:04:41;10.03;;;6.57;;
14858;SDS011;7521;51.700;6.874;2023-09-08T18:07:47;30.10;;;27.23;;
14858;SDS011;7521;51.700;6.874;2023-09-08T18:11:01;12.00;;;7.57;;
14858;SDS011;7521;51.700;6.874;2023-09-08T18:14:07;13.13;;;7.27;;
14858;SDS011;7521;51.700;6.874;2023-09-08T18:17:12;9.13;;;7.00;;
14858;SDS011;7521;51.700;6.874;2023-09-08T18:20:17;8.70;;;6.80;;
14858;SDS011;7521;51.700;6.874;2023-09-08T18:23:23;8.80;;;7.10;;
14858;SDS011;7521;51.700;6.874;2023-09-08T18:26:29;9.37;;;6.80;;
14858;SDS011;7521;51.700;6.874;2023-09-08T18:29:34;9.10;;;7.33;;
14858;SDS011;7521;51.700;6.874;2023-09-08T18:32:39;8.77;;;6.83;;
14858;SDS011;7521;51.700;6.874;2023-09-08T18:35:55;9.43;;;7.00;;
14858;SDS011;7521;51.700;6.874;2023-09-08T18:42:22;12.50;;;7.73;;
14858;SDS011;7521;51.700;6.874;2023-09-08T18:49:01;7.27;;;6.50;;
14858;SDS011;7521;51.700;6.874;2023-09-08T18:52:13;10.10;;;6.93;;
14858;SDS011;7521;51.700;6.874;2023-09-08T18:59:07;14.17;;;8.00;;
14858;SDS011;7521;51.700;6.874;2023-09-08T19:02:12;13.57;;;8.27;;
14858;SDS011;7521;51.700;6.874;2023-09-08T19:05:17;13.70;;;8.33;;
14858;SDS011;7521;51.700;6.874;2023-09-08T19:08:22;9.70;;;7.80;;
14858;SDS011;7521;51.700;6.874;2023-09-08T19:11:27;9.45;;;7.72;;
14858;SDS011;7521;51.700;6.874;2023-09-08T19:14:33;9.23;;;7.40;;